createdAt,value
2022-12-16T00:01:29.442Z,6.15
2022-12-16T00:03:59.946Z,7.93
2022-12-16T00:06:30.951Z,10.73
2022-12-16T00:09:00.163Z,7.35
2022-12-16T00:11:28.675Z,10.18
2022-12-16T00:13:58.119Z,5.00
2022-12-16T00:16:26.150Z,4.40
2022-12-16T00:18:54.254Z,3.80
2022-12-16T00:21:28.499Z,6.05
2022-12-16T00:23:56.653Z,5.28
2022-12-16T00:26:25.058Z,7.72
2022-12-16T00:28:53.072Z,11.13
2022-12-16T00:31:24.455Z,7.25
2022-12-16T00:33:52.987Z,7.50
2022-12-16T00:36:20.942Z,6.10
2022-12-16T00:38:48.912Z,11.30
2022-12-16T00:41:16.896Z,4.82
2022-12-16T00:43:44.911Z,9.85
2022-12-16T00:46:12.918Z,6.10
2022-12-16T00:48:42.289Z,7.60
2022-12-16T00:51:10.268Z,10.10
2022-12-16T00:53:38.328Z,9.50
2022-12-16T00:56:08.638Z,9.88
2022-12-16T00:58:37.260Z,10.27
2022-12-16T01:01:06.344Z,7.43
2022-12-16T01:03:35.495Z,17.77
2022-12-16T01:06:09.364Z,14.30
2022-12-16T01:08:37.476Z,11.23
2022-12-16T01:11:06.068Z,6.10
2022-12-16T01:13:34.615Z,23.35
2022-12-16T01:16:04.435Z,10.80
2022-12-16T01:18:32.770Z,9.95
2022-12-16T01:21:05.571Z,13.07
2022-12-16T01:23:34.471Z,10.00
2022-12-16T01:26:03.219Z,3.95
2022-12-16T01:28:31.931Z,7.68
2022-12-16T01:31:02.461Z,9.75
2022-12-16T01:33:31.606Z,12.30
2022-12-16T01:36:01.619Z,7.82
2022-12-16T01:38:31.127Z,10.05
2022-12-16T01:40:59.320Z,14.70
2022-12-16T01:43:30.123Z,7.65
2022-12-16T01:46:01.340Z,12.23
2022-12-16T01:48:40.041Z,15.23
2022-12-16T01:51:11.842Z,9.48
2022-12-16T01:53:44.153Z,12.77
2022-12-16T01:56:17.166Z,16.50
2022-12-16T01:58:46.255Z,18.95
2022-12-16T02:01:15.721Z,12.70
2022-12-16T02:03:44.471Z,9.82
2022-12-16T02:06:12.435Z,10.38
2022-12-16T02:08:41.806Z,15.65
2022-12-16T02:11:22.826Z,12.68
2022-12-16T02:14:10.842Z,11.52
2022-12-16T02:16:47.981Z,11.15
2022-12-16T02:19:38.809Z,13.57
2022-12-16T02:22:19.992Z,11.88
2022-12-16T02:25:31.419Z,11.60
2022-12-16T02:28:08.911Z,10.60
2022-12-16T02:30:55.338Z,14.88
2022-12-16T02:33:34.831Z,16.17
2022-12-16T02:36:12.174Z,14.15
2022-12-16T02:38:48.081Z,14.38
2022-12-16T02:41:24.731Z,14.65
2022-12-16T02:43:56.910Z,15.50
2022-12-16T02:46:30.038Z,13.90
2022-12-16T02:49:07.409Z,10.50
2022-12-16T02:51:39.005Z,15.68
2022-12-16T02:54:09.235Z,20.23
2022-12-16T02:56:50.692Z,16.60
2022-12-16T02:59:25.162Z,23.95
2022-12-16T03:02:00.007Z,17.60
2022-12-16T03:04:36.751Z,19.88
2022-12-16T03:07:08.052Z,13.65
2022-12-16T03:09:40.019Z,17.98
2022-12-16T03:12:11.761Z,14.73
2022-12-16T03:14:43.244Z,12.63
2022-12-16T03:17:14.920Z,17.17
2022-12-16T03:19:47.482Z,16.08
2022-12-16T03:22:19.731Z,12.20
2022-12-16T03:24:50.006Z,10.75
2022-12-16T03:27:20.559Z,13.90
2022-12-16T03:29:55.046Z,12.68
2022-12-16T03:32:29.520Z,17.98
2022-12-16T03:35:02.220Z,13.23
2022-12-16T03:37:34.856Z,18.58
2022-12-16T03:40:06.067Z,14.18
2022-12-16T03:42:36.361Z,14.73
2022-12-16T03:45:05.901Z,12.70
2022-12-16T03:47:35.395Z,12.25
2022-12-16T03:50:03.384Z,13.88
2022-12-16T03:52:31.366Z,17.27
2022-12-16T03:54:59.513Z,20.05
2022-12-16T03:57:27.471Z,17.83
2022-12-16T03:59:55.435Z,21.73
2022-12-16T04:02:23.598Z,18.17
2022-12-16T04:04:54.929Z,21.90
2022-12-16T04:07:24.385Z,20.52
2022-12-16T04:09:53.401Z,20.70
2022-12-16T04:12:39.176Z,14.73
2022-12-16T04:15:26.044Z,9.32
2022-12-16T04:18:11.958Z,17.75
2022-12-16T04:21:05.871Z,18.05
2022-12-16T04:23:53.608Z,14.30
2022-12-16T04:26:21.878Z,10.90
2022-12-16T04:28:49.938Z,22.55
2022-12-16T04:31:18.075Z,15.95
2022-12-16T04:34:03.665Z,16.90
2022-12-16T04:36:50.506Z,15.45
2022-12-16T04:39:35.997Z,17.20
2022-12-16T04:42:21.325Z,12.60
2022-12-16T04:45:15.078Z,18.08
2022-12-16T04:48:00.626Z,14.48
2022-12-16T04:50:57.426Z,13.45
2022-12-16T04:53:45.315Z,17.45
2022-12-16T04:56:42.731Z,17.35
2022-12-16T04:59:28.048Z,20.33
2022-12-16T05:02:25.128Z,17.13
2022-12-16T05:05:11.066Z,17.92
2022-12-16T05:07:56.468Z,28.42
2022-12-16T05:10:43.117Z,20.30
2022-12-16T05:13:28.626Z,18.95
2022-12-16T05:16:14.110Z,18.75
2022-12-16T05:18:59.702Z,25.25
2022-12-16T05:21:45.040Z,19.92
2022-12-16T05:24:30.548Z,17.52
2022-12-16T05:27:17.281Z,25.77
2022-12-16T05:30:02.624Z,21.27
2022-12-16T05:32:48.161Z,18.40
2022-12-16T05:35:33.725Z,22.42
2022-12-16T05:38:18.927Z,19.58
2022-12-16T05:41:04.417Z,19.40
2022-12-16T05:43:51.191Z,15.60
2022-12-16T05:46:36.714Z,27.00
2022-12-16T05:49:21.349Z,17.27
2022-12-16T05:52:06.842Z,22.42
2022-12-16T05:54:52.212Z,22.88
2022-12-16T05:57:49.170Z,19.30
2022-12-16T06:00:36.729Z,36.50
2022-12-16T06:03:22.634Z,17.80
2022-12-16T06:06:08.175Z,20.17
2022-12-16T06:08:53.658Z,22.95
2022-12-16T06:11:39.517Z,27.05
2022-12-16T06:14:25.511Z,25.35
2022-12-16T06:17:08.745Z,18.50
2022-12-16T06:19:54.198Z,21.73
2022-12-16T06:22:39.538Z,15.60
2022-12-16T06:25:25.500Z,21.80
2022-12-16T06:28:11.892Z,20.60
2022-12-16T06:30:57.762Z,22.40
2022-12-16T06:33:44.430Z,19.42
2022-12-16T06:36:29.952Z,18.13
2022-12-16T06:39:15.410Z,24.30
2022-12-16T06:42:00.748Z,24.10
2022-12-16T06:44:46.165Z,24.67
2022-12-16T06:47:31.652Z,19.35
2022-12-16T06:50:18.535Z,20.80
2022-12-16T06:53:04.353Z,22.17
2022-12-16T06:55:49.836Z,23.67
2022-12-16T06:58:35.283Z,27.67
2022-12-16T07:01:20.938Z,26.42
2022-12-16T07:04:06.368Z,29.48
2022-12-16T07:06:53.580Z,32.08
2022-12-16T07:09:38.994Z,27.25
2022-12-16T07:12:24.442Z,22.60
2022-12-16T07:15:09.847Z,33.72
2022-12-16T07:17:55.436Z,28.25
2022-12-16T07:20:40.825Z,22.85
2022-12-16T07:23:28.203Z,28.83
2022-12-16T07:26:13.639Z,36.08
2022-12-16T07:28:59.027Z,30.20
2022-12-16T07:31:44.512Z,32.03
2022-12-16T07:34:29.880Z,31.90
2022-12-16T07:37:15.313Z,33.67
2022-12-16T07:40:02.552Z,27.40
2022-12-16T07:42:48.016Z,28.48
2022-12-16T07:45:33.374Z,33.47
2022-12-16T07:48:18.645Z,28.05
2022-12-16T07:51:04.151Z,28.92
2022-12-16T07:53:49.491Z,28.60
2022-12-16T07:56:36.239Z,34.30
2022-12-16T07:59:21.801Z,28.98
2022-12-16T08:02:07.300Z,35.72
2022-12-16T08:04:52.824Z,38.80
2022-12-16T08:07:38.246Z,36.33
2022-12-16T08:10:24.747Z,35.88
2022-12-16T08:13:23.714Z,36.58
2022-12-16T08:16:10.919Z,32.70
2022-12-16T08:18:56.246Z,36.28
2022-12-16T08:21:40.928Z,38.92
2022-12-16T08:24:26.710Z,56.97
2022-12-16T08:27:12.761Z,36.30
2022-12-16T08:29:56.145Z,36.67
2022-12-16T08:32:41.611Z,40.42
2022-12-16T08:35:27.289Z,45.40
2022-12-16T08:38:14.299Z,42.38
2022-12-16T08:41:01.209Z,41.67
2022-12-16T08:43:50.675Z,39.83
2022-12-16T08:46:38.719Z,34.78
2022-12-16T08:49:24.743Z,43.45
2022-12-16T08:52:10.136Z,45.80
2022-12-16T08:54:56.055Z,49.08
2022-12-16T08:57:41.869Z,49.83
2022-12-16T09:00:28.509Z,41.40
2022-12-16T09:03:16.293Z,46.45
2022-12-16T09:06:02.293Z,40.88
2022-12-16T09:08:48.508Z,51.38
2022-12-16T09:11:33.924Z,44.28
2022-12-16T09:14:19.409Z,46.35
2022-12-16T09:17:04.754Z,48.65
2022-12-16T09:19:51.584Z,37.78
2022-12-16T09:22:39.402Z,43.65
2022-12-16T09:25:25.590Z,44.53
2022-12-16T09:28:11.209Z,46.83
2022-12-16T09:30:56.571Z,38.35
2022-12-16T09:33:42.074Z,31.98
2022-12-16T09:36:29.312Z,49.85
2022-12-16T09:39:14.648Z,50.35
2022-12-16T09:42:02.565Z,42.50
2022-12-16T09:45:06.383Z,47.55
2022-12-16T09:47:59.240Z,48.55
2022-12-16T09:50:46.137Z,49.45
2022-12-16T09:53:35.966Z,42.67
2022-12-16T09:56:24.706Z,45.15
2022-12-16T09:59:14.738Z,44.83
2022-12-16T10:02:03.395Z,52.05
2022-12-16T10:04:49.283Z,36.65
2022-12-16T10:07:38.158Z,45.83
2022-12-16T10:10:43.988Z,53.78
2022-12-16T10:13:37.539Z,44.47
2022-12-16T10:16:30.398Z,46.00
2022-12-16T10:19:23.415Z,39.50
2022-12-16T10:22:16.277Z,58.45
2022-12-16T10:25:13.730Z,53.05
2022-12-16T10:28:03.477Z,41.08
2022-12-16T10:30:50.979Z,51.10
2022-12-16T10:33:38.369Z,41.97
2022-12-16T10:36:30.140Z,43.85
2022-12-16T10:39:20.136Z,47.00
2022-12-16T10:42:10.253Z,49.10
2022-12-16T10:45:05.897Z,49.20
2022-12-16T10:47:51.379Z,53.28
2022-12-16T10:50:37.579Z,55.55
2022-12-16T10:53:31.996Z,44.67
2022-12-16T10:56:32.803Z,53.55
2022-12-16T10:59:22.649Z,46.03
2022-12-16T11:02:18.458Z,41.22
2022-12-16T11:05:04.569Z,49.40
2022-12-16T11:07:52.949Z,49.60
2022-12-16T11:10:48.607Z,54.00
2022-12-16T11:13:41.711Z,60.60
2022-12-16T11:16:39.149Z,60.80
2022-12-16T11:19:38.168Z,51.58
2022-12-16T11:22:26.131Z,55.58
2022-12-16T11:25:24.604Z,52.42
2022-12-16T11:28:20.589Z,58.00
2022-12-16T11:31:12.125Z,57.97
2022-12-16T11:33:58.762Z,62.60
2022-12-16T11:36:46.517Z,53.05
2022-12-16T11:39:34.833Z,52.75
2022-12-16T11:42:21.074Z,56.75
2022-12-16T11:45:14.296Z,44.95
2022-12-16T11:48:04.441Z,43.03
2022-12-16T11:50:55.509Z,46.05
2022-12-16T11:53:50.639Z,45.58
2022-12-16T11:56:40.758Z,60.88
2022-12-16T11:59:42.788Z,64.43
2022-12-16T12:02:34.450Z,73.60
2022-12-16T12:05:19.968Z,182.13
2022-12-16T12:08:12.576Z,133.48
2022-12-16T12:11:17.850Z,76.93
2022-12-16T12:14:23.210Z,60.72
2022-12-16T12:17:19.205Z,54.17
2022-12-16T12:20:19.741Z,60.65
2022-12-16T12:23:05.631Z,74.57
2022-12-16T12:26:03.097Z,60.50
2022-12-16T12:29:04.489Z,62.15
2022-12-16T12:31:57.873Z,61.08
2022-12-16T12:34:51.864Z,59.78
2022-12-16T12:37:46.432Z,57.28
2022-12-16T12:40:50.534Z,50.45
2022-12-16T12:43:47.587Z,69.85
2022-12-16T12:46:43.073Z,64.45
2022-12-16T12:49:37.426Z,61.15
2022-12-16T12:52:30.004Z,45.20
2022-12-16T12:55:22.906Z,50.78
2022-12-16T12:58:10.360Z,63.40
2022-12-16T13:01:04.324Z,57.70
2022-12-16T13:04:04.879Z,55.95
2022-12-16T13:06:52.879Z,54.58
2022-12-16T13:09:44.784Z,73.85
2022-12-16T13:12:46.298Z,91.25
2022-12-16T13:15:52.431Z,61.33
2022-12-16T13:18:44.690Z,71.78
2022-12-16T13:22:08.761Z,56.55
2022-12-16T13:25:00.283Z,62.88
2022-12-16T13:27:48.132Z,61.80
2022-12-16T13:30:41.208Z,52.13
2022-12-16T13:33:41.064Z,59.92
2022-12-16T13:36:27.761Z,63.00
2022-12-16T13:39:15.829Z,62.45
2022-12-16T13:42:17.386Z,50.40
2022-12-16T13:45:33.986Z,66.38
2022-12-16T13:48:43.417Z,60.70
2022-12-16T13:52:07.507Z,58.47
2022-12-16T13:54:58.929Z,69.47
2022-12-16T13:57:49.049Z,54.67
2022-12-16T14:00:37.854Z,56.60
2022-12-16T14:03:33.639Z,59.80
2022-12-16T14:06:22.602Z,56.30
2022-12-16T14:09:08.520Z,55.95
2022-12-16T14:12:06.024Z,60.60
2022-12-16T14:14:57.708Z,52.67
2022-12-16T14:17:47.316Z,66.13
2022-12-16T14:20:38.264Z,57.65
2022-12-16T14:23:56.313Z,73.63
2022-12-16T14:26:43.805Z,64.00
2022-12-16T14:29:37.547Z,67.15
2022-12-16T14:32:39.230Z,61.97
2022-12-16T14:35:31.550Z,62.30
2022-12-16T14:38:18.065Z,51.78
2022-12-16T14:41:10.295Z,82.20
2022-12-16T14:44:01.460Z,60.60
2022-12-16T14:46:48.868Z,70.88
2022-12-16T14:49:40.853Z,65.20
2022-12-16T14:52:38.635Z,83.88
2022-12-16T14:55:31.336Z,64.45
2022-12-16T14:58:27.494Z,48.63
2022-12-16T15:01:16.509Z,54.85
2022-12-16T15:04:04.847Z,56.88
2022-12-16T15:06:55.211Z,49.03
2022-12-16T15:10:00.628Z,68.38
2022-12-16T15:12:50.125Z,64.40
2022-12-16T15:15:50.420Z,80.95
2022-12-16T15:18:40.539Z,62.25
2022-12-16T15:21:26.898Z,54.55
2022-12-16T15:24:14.476Z,66.45
2022-12-16T15:27:00.335Z,75.75
2022-12-16T15:29:50.310Z,63.15
2022-12-16T15:32:48.770Z,66.30
2022-12-16T15:35:50.464Z,60.00
2022-12-16T15:38:42.490Z,64.25
2022-12-16T15:41:41.099Z,108.40
2022-12-16T15:44:34.172Z,114.07
2022-12-16T15:47:20.306Z,65.70
2022-12-16T15:50:07.297Z,74.97
2022-12-16T15:52:56.252Z,76.00
2022-12-16T15:55:45.307Z,75.90
2022-12-16T15:58:39.997Z,76.50
2022-12-16T16:01:27.002Z,58.67
2022-12-16T16:04:14.722Z,63.55
2022-12-16T16:07:04.514Z,63.88
2022-12-16T16:09:51.459Z,71.65
2022-12-16T16:12:38.907Z,62.50
2022-12-16T16:15:28.630Z,72.07
2022-12-16T16:18:18.068Z,63.97
2022-12-16T16:21:04.523Z,74.18
2022-12-16T16:23:49.965Z,73.47
2022-12-16T16:26:39.293Z,68.15
2022-12-16T16:29:24.724Z,74.82
2022-12-16T16:32:12.671Z,82.90
2022-12-16T16:34:54.790Z,77.22
2022-12-16T16:37:40.107Z,82.55
2022-12-16T16:40:35.993Z,70.15
2022-12-16T16:43:21.945Z,62.58
2022-12-16T16:46:12.818Z,66.90
2022-12-16T16:49:00.415Z,83.20
2022-12-16T16:51:46.666Z,77.43
2022-12-16T16:54:32.175Z,68.03
2022-12-16T16:57:20.199Z,65.78
2022-12-16T17:00:05.708Z,91.60
2022-12-16T17:02:51.256Z,84.28
2022-12-16T17:05:38.299Z,81.75
2022-12-16T17:08:24.519Z,99.03
2022-12-16T17:11:09.882Z,84.60
2022-12-16T17:13:55.186Z,69.30
2022-12-16T17:16:40.720Z,77.03
2022-12-16T17:19:26.307Z,86.50
2022-12-16T17:22:13.081Z,78.75
2022-12-16T17:25:06.750Z,70.80
2022-12-16T17:27:52.205Z,70.82
2022-12-16T17:30:46.513Z,86.53
2022-12-16T17:33:33.594Z,84.88
2022-12-16T17:36:19.877Z,84.43
2022-12-16T17:39:06.609Z,81.82
2022-12-16T17:41:52.513Z,66.97
2022-12-16T17:44:38.335Z,87.80
2022-12-16T17:47:23.815Z,97.32
2022-12-16T17:50:09.375Z,96.38
2022-12-16T17:52:51.645Z,88.75
2022-12-16T17:55:38.810Z,83.90
2022-12-16T17:58:24.215Z,97.82
2022-12-16T18:01:18.032Z,81.47
2022-12-16T18:04:03.590Z,102.55
2022-12-16T18:06:49.127Z,88.25
2022-12-16T18:09:34.643Z,88.85
2022-12-16T18:12:21.832Z,95.95
2022-12-16T18:15:07.129Z,105.18
2022-12-16T18:17:52.688Z,83.70
2022-12-16T18:20:38.185Z,90.97
2022-12-16T18:23:20.127Z,107.47
2022-12-16T18:26:16.444Z,107.70
2022-12-16T18:29:03.637Z,78.90
2022-12-16T18:31:49.516Z,81.38
2022-12-16T18:34:35.072Z,79.63
2022-12-16T18:37:20.602Z,90.75
2022-12-16T18:40:05.799Z,64.25
2022-12-16T18:42:51.380Z,100.07
2022-12-16T18:45:38.355Z,112.72
2022-12-16T18:48:24.141Z,96.93
2022-12-16T18:51:13.737Z,114.32
2022-12-16T18:53:59.724Z,111.40
2022-12-16T18:56:45.619Z,107.38
2022-12-16T18:59:39.838Z,99.53
2022-12-16T19:02:27.557Z,114.15
2022-12-16T19:05:13.034Z,80.65
2022-12-16T19:07:58.329Z,111.93
2022-12-16T19:10:43.692Z,90.32
2022-12-16T19:13:31.253Z,91.82
2022-12-16T19:16:17.170Z,103.25
2022-12-16T19:19:04.617Z,97.22
2022-12-16T19:21:52.190Z,78.18
2022-12-16T19:24:42.449Z,114.95
2022-12-16T19:27:28.430Z,82.75
2022-12-16T19:30:13.859Z,79.75
2022-12-16T19:32:59.312Z,105.30
2022-12-16T19:35:46.007Z,108.80
2022-12-16T19:38:33.764Z,129.38
2022-12-16T19:41:19.146Z,83.60
2022-12-16T19:44:06.348Z,95.72
2022-12-16T19:49:57.965Z,111.00
2022-12-16T19:52:44.612Z,92.55
2022-12-16T19:55:30.073Z,109.50
2022-12-16T19:58:15.897Z,103.57
2022-12-16T20:01:01.482Z,109.60
2022-12-16T20:03:48.459Z,107.25
2022-12-16T20:06:34.246Z,109.85
2022-12-16T20:09:21.010Z,119.43
2022-12-16T20:12:06.585Z,90.50
2022-12-16T20:14:51.937Z,119.38
2022-12-16T20:17:37.454Z,102.35
2022-12-16T20:20:23.618Z,97.28
2022-12-16T20:23:09.073Z,124.47
2022-12-16T20:25:56.928Z,93.50
2022-12-16T20:28:42.915Z,110.10
2022-12-16T20:31:28.422Z,115.57
2022-12-16T20:34:17.475Z,108.63
2022-12-16T20:37:03.453Z,104.25
2022-12-16T20:39:56.475Z,99.82
2022-12-16T20:42:44.180Z,136.13
2022-12-16T20:45:30.197Z,102.53
2022-12-16T20:48:15.733Z,116.28
2022-12-16T20:51:01.230Z,106.95
2022-12-16T20:53:47.284Z,112.35
2022-12-16T20:56:32.792Z,112.63
2022-12-16T20:59:19.963Z,126.68
2022-12-16T21:05:10.851Z,110.07
2022-12-16T21:07:56.865Z,124.07
2022-12-16T21:10:42.348Z,107.40
2022-12-16T21:13:30.305Z,108.43
2022-12-16T21:16:18.521Z,105.40
2022-12-16T21:19:04.354Z,105.85
2022-12-16T21:21:50.317Z,110.38
2022-12-16T21:24:35.817Z,100.47
2022-12-16T21:27:21.971Z,121.30
2022-12-16T21:30:07.429Z,109.90
2022-12-16T21:32:54.291Z,86.65
2022-12-16T21:35:42.210Z,85.20
2022-12-16T21:38:28.523Z,114.18
2022-12-16T21:41:14.369Z,122.80
2022-12-16T21:44:00.086Z,116.38
2022-12-16T21:46:45.958Z,115.47
2022-12-16T21:49:32.745Z,141.02
2022-12-16T21:52:18.109Z,95.03
2022-12-16T21:55:03.592Z,113.97
2022-12-16T21:57:48.992Z,109.00
2022-12-16T22:00:34.933Z,107.13
2022-12-16T22:03:20.376Z,86.30
2022-12-16T22:06:07.174Z,88.82
2022-12-16T22:08:52.737Z,108.22
2022-12-16T22:11:44.873Z,112.43
2022-12-16T22:14:30.396Z,106.82
2022-12-16T22:17:15.866Z,100.78
2022-12-16T22:20:01.433Z,96.25
2022-12-16T22:22:48.395Z,101.30
2022-12-16T22:25:34.155Z,99.18
2022-12-16T22:28:19.777Z,75.40
2022-12-16T22:31:15.595Z,87.05
2022-12-16T22:34:10.425Z,88.80
2022-12-16T22:36:56.737Z,128.80
2022-12-16T22:42:49.399Z,69.82
2022-12-16T22:45:35.238Z,88.78
2022-12-16T22:48:21.008Z,83.18
2022-12-16T22:51:06.451Z,60.92
2022-12-16T22:53:51.709Z,77.30
2022-12-16T22:56:38.662Z,70.63
2022-12-16T22:59:24.688Z,50.10
2022-12-16T23:02:10.216Z,56.45
2022-12-16T23:04:55.713Z,72.63
2022-12-16T23:07:42.900Z,65.75
2022-12-16T23:10:28.213Z,66.10
2022-12-16T23:13:14.917Z,64.22
2022-12-16T23:16:00.460Z,62.33
2022-12-16T23:18:45.952Z,61.47
2022-12-16T23:21:34.956Z,75.22
2022-12-16T23:24:20.507Z,73.50
2022-12-16T23:27:05.908Z,91.45
2022-12-16T23:29:52.575Z,64.50
2022-12-16T23:32:42.192Z,68.28
2022-12-16T23:35:28.308Z,49.08
2022-12-16T23:38:19.133Z,67.20
2022-12-16T23:41:04.530Z,70.22
2022-12-16T23:43:49.981Z,62.33
2022-12-16T23:46:36.717Z,62.30
2022-12-16T23:49:22.293Z,72.47
2022-12-16T23:52:07.689Z,72.93
2022-12-16T23:54:53.143Z,81.47
2022-12-16T23:57:38.503Z,84.32
